Time,TemperatureF,DewpointF,PressureIn,WindDirection,WindDirectionDegrees,WindSpeedMPH,WindSpeedGustMPH,Humidity,HourlyPrecipIn,Conditions,Clouds,dailyrainin,SoftwareType,DateUTC
2013-06-08 00:02:00,55.0,44.6,29.97,North,-999,0.0,0.0,68,0.00,,,-99.99,FreeWX 2.04,2013-06-08 05:02:00,
2013-06-08 00:07:00,54.9,45.0,29.97,North,-999,0.0,3.6,69,0.00,,,-99.99,FreeWX 2.04,2013-06-08 05:07:00,
2013-06-08 00:12:00,54.7,44.8,29.97,North,-999,0.0,4.0,69,0.00,,,-99.99,FreeWX 2.04,2013-06-08 05:12:00,
2013-06-08 00:17:00,54.5,44.6,29.97,North,-999,0.0,5.4,69,0.00,,,-99.99,FreeWX 2.04,2013-06-08 05:17:00,
2013-06-08 00:22:00,54.5,45.0,29.97,North,-999,0.0,0.0,70,0.00,,,-99.99,FreeWX 2.04,2013-06-08 05:22:00,
2013-06-08 00:27:00,54.5,45.0,29.97,North,-999,0.0,0.0,70,0.00,,,-99.99,FreeWX 2.04,2013-06-08 05:27:00,
2013-06-08 00:32:00,54.3,45.1,29.97,North,-999,0.0,0.0,71,0.00,,,-99.99,FreeWX 2.04,2013-06-08 05:32:00,
2013-06-08 00:37:00,54.3,45.1,29.97,North,-999,0.0,0.0,71,0.00,,,-99.99,FreeWX 2.04,2013-06-08 05:37:00,
2013-06-08 00:42:00,54.1,45.0,29.97,North,-999,0.0,0.0,71,0.00,,,-99.99,FreeWX 2.04,2013-06-08 05:42:00,
2013-06-08 00:47:00,54.1,45.0,29.97,North,-999,0.0,0.0,71,0.00,,,-99.99,FreeWX 2.04,2013-06-08 05:47:00,
2013-06-08 00:52:00,53.8,44.6,29.97,North,-999,0.0,0.0,71,0.00,,,-99.99,FreeWX 2.04,2013-06-08 05:52:00,
2013-06-08 00:57:00,53.6,44.4,29.97,North,-999,0.0,0.0,71,0.00,,,-99.99,FreeWX 2.04,2013-06-08 05:57:00,
2013-06-08 01:02:00,53.2,44.1,29.97,North,-999,0.0,3.6,71,0.00,,,-99.99,FreeWX 2.04,2013-06-08 06:02:00,
2013-06-08 01:07:00,53.1,44.2,29.97,North,-999,0.0,0.0,72,0.00,,,-99.99,FreeWX 2.04,2013-06-08 06:07:00,
2013-06-08 01:12:00,52.9,44.1,29.97,North,-999,0.0,0.0,72,0.00,,,-99.99,FreeWX 2.04,2013-06-08 06:12:00,
2013-06-08 01:17:00,52.7,43.9,29.97,North,-999,0.0,0.0,72,0.00,,,-99.99,FreeWX 2.04,2013-06-08 06:17:00,
2013-06-08 01:22:00,52.5,44.1,29.97,North,-999,0.0,0.0,73,0.00,,,-99.99,FreeWX 2.04,2013-06-08 06:22:00,
2013-06-08 01:27:00,52.2,43.7,29.97,North,-999,0.0,0.0,73,0.00,,,-99.99,FreeWX 2.04,2013-06-08 06:27:00,
2013-06-08 01:32:00,52.0,43.5,29.97,North,-999,0.0,0.0,73,0.00,,,-99.99,FreeWX 2.04,2013-06-08 06:32:00,
2013-06-08 01:37:00,51.6,43.3,29.97,North,-999,0.0,0.0,73,0.00,,,-99.99,FreeWX 2.04,2013-06-08 06:37:00,
2013-06-08 01:42:00,51.4,43.5,29.97,North,-999,0.0,0.0,74,0.00,,,-99.99,FreeWX 2.04,2013-06-08 06:42:00,
2013-06-08 01:47:00,51.1,43.2,29.97,North,-999,0.0,0.0,74,0.00,,,-99.99,FreeWX 2.04,2013-06-08 06:47:00,
2013-06-08 01:52:00,50.9,43.0,29.97,North,-999,0.0,0.0,74,0.00,,,-99.99,FreeWX 2.04,2013-06-08 06:52:00,
2013-06-08 01:57:00,50.7,42.8,29.97,North,-999,0.0,0.0,74,0.00,,,-99.99,FreeWX 2.04,2013-06-08 06:57:00,
2013-06-08 02:02:00,50.5,43.0,29.97,North,-999,0.0,0.0,75,0.00,,,-99.99,FreeWX 2.04,2013-06-08 07:02:00,
2013-06-08 02:07:00,50.5,43.0,29.97,North,-999,0.0,0.0,75,0.00,,,-99.99,FreeWX 2.04,2013-06-08 07:07:00,
2013-06-08 02:12:00,50.5,43.0,29.97,North,-999,0.0,0.0,75,0.00,,,-99.99,FreeWX 2.04,2013-06-08 07:12:00,
2013-06-08 02:17:00,50.5,43.0,29.97,North,-999,0.0,0.0,75,0.00,,,-99.99,FreeWX 2.04,2013-06-08 07:17:00,
2013-06-08 02:22:00,50.5,43.3,29.97,North,-999,0.0,0.0,76,0.00,,,-99.99,FreeWX 2.04,2013-06-08 07:22:00,
2013-06-08 02:27:00,50.4,43.2,29.97,North,-999,0.0,0.0,76,0.00,,,-99.99,FreeWX 2.04,2013-06-08 07:27:00,
2013-06-08 02:32:00,50.4,43.2,29.97,North,-999,0.0,0.0,76,0.00,,,-99.99,FreeWX 2.04,2013-06-08 07:32:00,
2013-06-08 02:37:00,50.5,43.3,29.97,North,-999,0.0,0.0,76,0.00,,,-99.99,FreeWX 2.04,2013-06-08 07:37:00,
2013-06-08 02:42:00,50.5,43.5,29.97,North,-999,0.0,0.0,77,0.00,,,-99.99,FreeWX 2.04,2013-06-08 07:42:00,
2013-06-08 02:47:00,50.4,43.3,29.97,North,-999,0.0,0.0,77,0.00,,,-99.99,FreeWX 2.04,2013-06-08 07:47:00,
2013-06-08 02:52:00,50.4,43.3,29.97,North,-999,0.0,0.0,77,0.00,,,-99.99,FreeWX 2.04,2013-06-08 07:52:00,
2013-06-08 02:57:00,50.4,43.3,29.97,North,-999,0.0,0.0,77,0.00,,,-99.99,FreeWX 2.04,2013-06-08 07:57:00,
2013-06-08 03:02:00,50.2,43.3,29.97,North,-999,0.0,0.0,77,0.00,,,-99.99,FreeWX 2.04,2013-06-08 08:02:00,
2013-06-08 03:07:00,50.2,43.5,29.97,North,-999,0.0,0.0,78,0.00,,,-99.99,FreeWX 2.04,2013-06-08 08:07:00,
2013-06-08 03:12:00,50.0,43.3,29.97,North,-999,0.0,0.0,78,0.00,,,-99.99,FreeWX 2.04,2013-06-08 08:12:00,
2013-06-08 03:17:00,49.8,43.2,29.97,North,-999,0.0,0.0,78,0.00,,,-99.99,FreeWX 2.04,2013-06-08 08:17:00,
2013-06-08 03:22:00,49.8,43.2,29.97,North,-999,0.0,0.0,78,0.00,,,-99.99,FreeWX 2.04,2013-06-08 08:22:00,
2013-06-08 03:27:00,49.8,43.2,29.97,North,-999,0.0,0.0,78,0.00,,,-99.99,FreeWX 2.04,2013-06-08 08:27:00,
2013-06-08 03:32:00,49.6,43.0,29.97,North,-999,0.0,0.0,78,0.00,,,-99.99,FreeWX 2.04,2013-06-08 08:32:00,
2013-06-08 03:37:00,49.6,43.3,29.97,North,-999,0.0,0.0,79,0.00,,,-99.99,FreeWX 2.04,2013-06-08 08:37:00,
2013-06-08 03:42:00,49.5,43.2,29.97,North,-999,0.0,0.0,79,0.00,,,-99.99,FreeWX 2.04,2013-06-08 08:42:00,
2013-06-08 03:47:00,49.1,42.8,29.97,North,-999,0.0,0.0,79,0.00,,,-99.99,FreeWX 2.04,2013-06-08 08:47:00,
2013-06-08 03:52:00,48.9,42.6,29.97,North,-999,0.0,0.0,79,0.00,,,-99.99,FreeWX 2.04,2013-06-08 08:52:00,
2013-06-08 03:57:00,48.7,42.4,29.97,North,-999,0.0,0.0,79,0.00,,,-99.99,FreeWX 2.04,2013-06-08 08:57:00,
2013-06-08 04:02:00,48.7,42.8,29.97,North,-999,0.0,0.0,80,0.00,,,-99.99,FreeWX 2.04,2013-06-08 09:02:00,
2013-06-08 04:07:00,48.6,42.6,29.97,North,-999,0.0,0.0,80,0.00,,,-99.99,FreeWX 2.04,2013-06-08 09:07:00,
2013-06-08 04:12:00,48.4,42.8,29.97,North,-999,0.0,3.6,81,0.00,,,-99.99,FreeWX 2.04,2013-06-08 09:12:00,
2013-06-08 04:17:00,48.2,42.6,29.97,North,-999,0.0,3.1,81,0.00,,,-99.99,FreeWX 2.04,2013-06-08 09:17:00,
2013-06-08 04:22:00,48.2,43.0,29.97,North,-999,0.0,4.5,82,0.00,,,-99.99,FreeWX 2.04,2013-06-08 09:22:00,
2013-06-08 04:27:00,48.0,42.8,29.97,North,-999,0.0,4.5,82,0.00,,,-99.99,FreeWX 2.04,2013-06-08 09:27:00,
2013-06-08 04:32:00,48.0,43.2,29.97,North,-999,0.0,4.5,83,0.00,,,-99.99,FreeWX 2.04,2013-06-08 09:32:00,
2013-06-08 04:37:00,48.0,43.2,29.94,North,-999,0.0,0.0,83,0.00,,,-99.99,FreeWX 2.04,2013-06-08 09:37:00,
2013-06-08 04:42:00,48.0,43.2,29.94,North,-999,0.0,0.0,83,0.00,,,-99.99,FreeWX 2.04,2013-06-08 09:42:00,
2013-06-08 04:47:00,48.2,43.3,29.94,North,-999,0.0,0.0,83,0.00,,,-99.99,FreeWX 2.04,2013-06-08 09:47:00,
2013-06-08 04:52:00,48.2,43.3,29.94,North,-999,0.0,0.0,83,0.00,,,-99.99,FreeWX 2.04,2013-06-08 09:52:00,
2013-06-08 04:57:00,48.2,43.3,29.94,North,-999,0.0,0.0,83,0.00,,,-99.99,FreeWX 2.04,2013-06-08 09:57:00,
2013-06-08 05:02:00,48.4,43.7,29.94,North,-999,0.0,0.0,84,0.00,,,-99.99,FreeWX 2.04,2013-06-08 10:02:00,
2013-06-08 05:07:00,48.4,43.7,29.94,North,-999,0.0,0.0,84,0.00,,,-99.99,FreeWX 2.04,2013-06-08 10:07:00,
2013-06-08 05:12:00,48.4,43.7,29.94,North,-999,0.0,0.0,84,0.00,,,-99.99,FreeWX 2.04,2013-06-08 10:12:00,
2013-06-08 05:17:00,48.4,43.7,29.94,North,-999,0.0,0.0,84,0.00,,,-99.99,FreeWX 2.04,2013-06-08 10:17:00,
2013-06-08 05:22:00,48.2,43.5,29.94,North,-999,0.0,0.0,84,0.00,,,-99.99,FreeWX 2.04,2013-06-08 10:22:00,
2013-06-08 05:27:00,48.2,43.5,29.94,North,-999,0.0,0.0,84,0.00,,,-99.99,FreeWX 2.04,2013-06-08 10:27:00,
2013-06-08 05:32:00,48.2,43.5,29.94,North,-999,0.0,0.0,84,0.00,,,-99.99,FreeWX 2.04,2013-06-08 10:32:00,
2013-06-08 05:37:00,48.0,43.3,29.94,North,-999,0.0,0.0,84,0.00,,,-99.99,FreeWX 2.04,2013-06-08 10:37:00,
2013-06-08 05:42:00,48.0,43.3,29.94,North,-999,0.0,0.0,84,0.00,,,-99.99,FreeWX 2.04,2013-06-08 10:42:00,
2013-06-08 05:47:00,48.0,43.3,29.94,North,-999,0.0,0.0,84,0.00,,,-99.99,FreeWX 2.04,2013-06-08 10:47:00,
2013-06-08 05:52:00,48.0,43.3,29.94,North,-999,0.0,0.0,84,0.00,,,-99.99,FreeWX 2.04,2013-06-08 10:52:00,
2013-06-08 05:57:00,48.0,43.3,29.94,North,-999,0.0,0.0,84,0.00,,,-99.99,FreeWX 2.04,2013-06-08 10:57:00,
2013-06-08 06:02:00,48.0,43.3,29.94,North,-999,0.0,0.0,84,0.00,,,-99.99,FreeWX 2.04,2013-06-08 11:02:00,
2013-06-08 06:07:00,48.0,43.3,29.97,North,-999,0.0,2.7,84,0.00,,,-99.99,FreeWX 2.04,2013-06-08 11:07:00,
2013-06-08 06:12:00,48.0,43.3,29.97,North,-999,0.0,0.0,84,0.00,,,-99.99,FreeWX 2.04,2013-06-08 11:12:00,
2013-06-08 06:17:00,48.2,43.9,29.97,North,-999,0.0,0.0,85,0.00,,,-99.99,FreeWX 2.04,2013-06-08 11:17:00,
2013-06-08 06:22:00,48.4,44.1,29.97,North,-999,0.0,0.0,85,0.00,,,-99.99,FreeWX 2.04,2013-06-08 11:22:00,
2013-06-08 06:27:00,48.4,44.1,29.97,North,-999,0.0,0.0,85,0.00,,,-99.99,FreeWX 2.04,2013-06-08 11:27:00,
2013-06-08 06:32:00,48.6,44.2,29.97,North,-999,0.0,0.0,85,0.00,,,-99.99,FreeWX 2.04,2013-06-08 11:32:00,
2013-06-08 06:37:00,48.7,44.4,29.97,North,-999,0.0,3.6,85,0.00,,,-99.99,FreeWX 2.04,2013-06-08 11:37:00,
2013-06-08 06:42:00,48.9,44.6,29.97,North,-999,0.0,4.9,85,0.00,,,-99.99,FreeWX 2.04,2013-06-08 11:42:00,
2013-06-08 06:47:00,49.1,44.8,29.97,North,-999,0.0,0.0,85,0.00,,,-99.99,FreeWX 2.04,2013-06-08 11:47:00,
2013-06-08 06:52:00,49.6,45.7,29.97,North,-999,0.0,0.0,86,0.00,,,-99.99,FreeWX 2.04,2013-06-08 11:52:00,
2013-06-08 06:57:00,50.5,46.8,29.97,North,-999,0.0,0.0,87,0.00,,,-99.99,FreeWX 2.04,2013-06-08 11:57:00,
2013-06-08 07:02:00,52.0,48.6,29.97,North,-999,0.0,0.0,88,0.00,,,-99.99,FreeWX 2.04,2013-06-08 12:02:00,
2013-06-08 07:07:00,53.8,50.5,29.97,North,-999,0.0,0.0,89,0.00,,,-99.99,FreeWX 2.04,2013-06-08 12:07:00,
2013-06-08 07:12:00,55.9,53.1,29.97,North,-999,0.0,0.0,90,0.00,,,-99.99,FreeWX 2.04,2013-06-08 12:12:00,
2013-06-08 07:17:00,57.6,54.7,29.97,North,-999,0.0,0.0,90,0.00,,,-99.99,FreeWX 2.04,2013-06-08 12:17:00,
2013-06-08 07:22:00,58.8,55.6,29.97,North,-999,0.0,0.0,89,0.00,,,-99.99,FreeWX 2.04,2013-06-08 12:22:00,
2013-06-08 07:27:00,59.7,55.2,29.97,North,-999,0.0,0.0,85,0.00,,,-99.99,FreeWX 2.04,2013-06-08 12:27:00,
2013-06-08 07:32:00,60.4,54.9,29.97,North,-999,0.0,0.0,82,0.00,,,-99.99,FreeWX 2.04,2013-06-08 12:32:00,
2013-06-08 07:37:00,61.0,54.5,30.00,North,-999,0.0,0.0,79,0.00,,,-99.99,FreeWX 2.04,2013-06-08 12:37:00,
2013-06-08 07:42:00,61.5,54.0,30.00,North,-999,0.0,0.0,76,0.00,,,-99.99,FreeWX 2.04,2013-06-08 12:42:00,
2013-06-08 07:47:00,62.2,53.4,30.00,North,-999,0.0,0.0,73,0.00,,,-99.99,FreeWX 2.04,2013-06-08 12:47:00,
2013-06-08 07:52:00,62.6,53.1,30.00,North,-999,0.0,0.0,71,0.00,,,-99.99,FreeWX 2.04,2013-06-08 12:52:00,
2013-06-08 07:57:00,63.0,53.1,30.00,North,-999,0.0,0.0,70,0.00,,,-99.99,FreeWX 2.04,2013-06-08 12:57:00,
2013-06-08 08:02:00,63.3,52.5,30.00,North,-999,0.0,0.0,68,0.00,,,-99.99,FreeWX 2.04,2013-06-08 13:02:00,
2013-06-08 08:07:00,63.5,52.3,29.97,North,-999,0.0,0.0,67,0.00,,,-99.99,FreeWX 2.04,2013-06-08 13:07:00,
2013-06-08 08:12:00,64.0,52.5,29.97,North,-999,0.0,0.0,66,0.00,,,-99.99,FreeWX 2.04,2013-06-08 13:12:00,
2013-06-08 08:17:00,64.2,52.2,29.97,North,-999,0.0,0.0,65,0.00,,,-99.99,FreeWX 2.04,2013-06-08 13:17:00,
2013-06-08 08:22:00,64.4,52.0,29.97,North,-999,0.0,0.0,64,0.00,,,-99.99,FreeWX 2.04,2013-06-08 13:22:00,
2013-06-08 08:27:00,64.6,51.6,29.97,North,-999,0.0,0.0,63,0.00,,,-99.99,FreeWX 2.04,2013-06-08 13:27:00,
2013-06-08 08:32:00,64.6,51.6,29.97,North,-999,0.0,0.0,63,0.00,,,-99.99,FreeWX 2.04,2013-06-08 13:32:00,
2013-06-08 08:37:00,64.6,51.3,29.97,North,-999,0.0,0.0,62,0.00,,,-99.99,FreeWX 2.04,2013-06-08 13:37:00,
2013-06-08 08:42:00,64.4,50.7,29.97,North,-999,0.0,0.0,61,0.00,,,-99.99,FreeWX 2.04,2013-06-08 13:42:00,
2013-06-08 08:47:00,63.9,49.6,29.97,North,-999,0.0,0.0,60,0.00,,,-99.99,FreeWX 2.04,2013-06-08 13:47:00,
2013-06-08 08:52:00,63.9,50.2,29.97,North,-999,0.0,0.0,61,0.00,,,-99.99,FreeWX 2.04,2013-06-08 13:52:00,
2013-06-08 08:57:00,63.7,49.5,29.97,North,-999,0.0,0.0,60,0.00,,,-99.99,FreeWX 2.04,2013-06-08 13:57:00,
2013-06-08 09:02:00,63.7,49.5,29.97,North,-999,0.0,0.0,60,0.00,,,-99.99,FreeWX 2.04,2013-06-08 14:02:00,
2013-06-08 09:07:00,63.9,50.2,29.97,North,-999,0.0,0.0,61,0.00,,,-99.99,FreeWX 2.04,2013-06-08 14:07:00,
2013-06-08 09:12:00,64.0,50.4,29.97,North,-999,0.0,0.0,61,0.00,,,-99.99,FreeWX 2.04,2013-06-08 14:12:00,
2013-06-08 09:17:00,64.2,50.0,29.97,North,-999,0.0,0.0,60,0.00,,,-99.99,FreeWX 2.04,2013-06-08 14:17:00,
2013-06-08 09:22:00,64.6,50.0,29.97,North,-999,0.0,0.0,59,0.00,,,-99.99,FreeWX 2.04,2013-06-08 14:22:00,
2013-06-08 09:27:00,65.1,50.0,29.97,North,-999,0.0,0.0,58,0.00,,,-99.99,FreeWX 2.04,2013-06-08 14:27:00,
2013-06-08 09:32:00,64.9,47.8,29.97,North,-999,0.0,0.0,54,0.00,,,-99.99,FreeWX 2.04,2013-06-08 14:32:00,
2013-06-08 09:37:00,64.9,47.8,29.97,NNE,18,1.0,6.9,54,0.00,,,-99.99,FreeWX 2.04,2013-06-08 14:37:00,
2013-06-08 09:42:00,65.7,49.1,29.97,NE,55,2.0,6.7,55,0.00,,,-99.99,FreeWX 2.04,2013-06-08 14:42:00,
2013-06-08 09:47:00,65.8,48.7,29.97,East,86,2.0,5.4,54,0.00,,,-99.99,FreeWX 2.04,2013-06-08 14:47:00,
2013-06-08 09:52:00,66.2,49.1,29.97,ENE,77,1.0,6.7,54,0.00,,,-99.99,FreeWX 2.04,2013-06-08 14:52:00,
2013-06-08 09:57:00,66.2,49.1,29.97,East,80,2.0,5.4,54,0.00,,,-99.99,FreeWX 2.04,2013-06-08 14:57:00,
2013-06-08 10:02:00,66.2,48.6,29.97,East,99,1.0,5.4,53,0.00,,,-99.99,FreeWX 2.04,2013-06-08 15:02:00,
2013-06-08 10:07:00,66.2,48.6,29.97,SE,134,1.0,5.4,53,0.00,,,-99.99,FreeWX 2.04,2013-06-08 15:07:00,
2013-06-08 10:12:00,66.4,48.7,29.97,ESE,117,2.0,5.8,53,0.00,,,-99.99,FreeWX 2.04,2013-06-08 15:12:00,
2013-06-08 10:17:00,66.6,47.8,29.97,ENE,66,2.0,5.4,51,0.00,,,-99.99,FreeWX 2.04,2013-06-08 15:17:00,
2013-06-08 10:22:00,66.4,48.2,29.97,ENE,66,2.0,4.9,52,0.00,,,-99.99,FreeWX 2.04,2013-06-08 15:22:00,
2013-06-08 10:27:00,66.6,48.9,29.97,ENE,76,1.0,4.9,53,0.00,,,-99.99,FreeWX 2.04,2013-06-08 15:27:00,
2013-06-08 10:32:00,67.3,49.1,29.97,NE,53,2.0,7.8,52,0.00,,,-99.99,FreeWX 2.04,2013-06-08 15:32:00,
2013-06-08 10:37:00,67.3,48.0,29.97,NE,40,3.0,5.8,50,0.00,,,-99.99,FreeWX 2.04,2013-06-08 15:37:00,
2013-06-08 10:42:00,67.1,47.8,29.97,NNE,32,2.0,4.5,50,0.00,,,-99.99,FreeWX 2.04,2013-06-08 15:42:00,
2013-06-08 10:47:00,67.1,47.8,29.97,NE,35,2.0,7.4,50,0.00,,,-99.99,FreeWX 2.04,2013-06-08 15:47:00,
2013-06-08 10:52:00,67.1,47.8,29.97,NE,48,2.0,5.8,50,0.00,,,-99.99,FreeWX 2.04,2013-06-08 15:52:00,
2013-06-08 10:57:00,67.6,48.4,29.97,NNE,28,2.0,4.5,50,0.00,,,-99.99,FreeWX 2.04,2013-06-08 15:57:00,
2013-06-08 11:02:00,68.0,46.9,29.97,NNE,19,3.0,7.4,47,0.00,,,-99.99,FreeWX 2.04,2013-06-08 16:02:00,
2013-06-08 11:07:00,68.2,47.1,29.97,NNE,12,3.0,8.3,47,0.00,,,-99.99,FreeWX 2.04,2013-06-08 16:07:00,
2013-06-08 11:12:00,68.2,46.6,29.97,NNE,24,3.0,7.4,46,0.00,,,-99.99,FreeWX 2.04,2013-06-08 16:12:00,
2013-06-08 11:17:00,68.4,46.8,29.97,NNE,24,3.0,5.8,46,0.00,,,-99.99,FreeWX 2.04,2013-06-08 16:17:00,
2013-06-08 11:22:00,68.9,47.3,29.94,NE,42,3.0,6.7,46,0.00,,,-99.99,FreeWX 2.04,2013-06-08 16:22:00,
2013-06-08 11:27:00,69.3,46.9,29.94,East,86,3.0,7.8,45,0.00,,,-99.99,FreeWX 2.04,2013-06-08 16:27:00,
2013-06-08 11:32:00,68.9,46.0,29.94,East,82,4.0,8.7,44,0.00,,,-99.99,FreeWX 2.04,2013-06-08 16:32:00,
2013-06-08 11:37:00,68.5,45.7,29.97,NNE,15,3.0,6.9,44,0.00,,,-99.99,FreeWX 2.04,2013-06-08 16:37:00,
2013-06-08 11:42:00,68.5,45.7,29.97,North,359,3.0,6.9,44,0.00,,,-99.99,FreeWX 2.04,2013-06-08 16:42:00,
2013-06-08 11:47:00,68.5,45.7,29.97,NNE,33,2.0,6.3,44,0.00,,,-99.99,FreeWX 2.04,2013-06-08 16:47:00,
2013-06-08 11:52:00,68.5,45.7,29.97,NE,49,3.0,8.7,44,0.00,,,-99.99,FreeWX 2.04,2013-06-08 16:52:00,
2013-06-08 11:57:00,68.4,45.5,29.97,NNE,29,3.0,6.9,44,0.00,,,-99.99,FreeWX 2.04,2013-06-08 16:57:00,
2013-06-08 12:02:00,68.7,46.6,29.97,North,9,3.0,7.4,45,0.00,,,-99.99,FreeWX 2.04,2013-06-08 17:02:00,
2013-06-08 12:07:00,68.9,46.0,29.97,NNE,14,3.0,7.8,44,0.00,,,-99.99,FreeWX 2.04,2013-06-08 17:07:00,
2013-06-08 12:12:00,68.9,46.0,29.97,ENE,61,3.0,6.3,44,0.00,,,-99.99,FreeWX 2.04,2013-06-08 17:12:00,
2013-06-08 12:17:00,69.3,45.9,29.97,East,85,4.0,11.0,43,0.00,,,-99.99,FreeWX 2.04,2013-06-08 17:17:00,
2013-06-08 12:22:00,69.8,46.9,29.94,East,95,3.0,6.3,44,0.00,,,-99.99,FreeWX 2.04,2013-06-08 17:22:00,
2013-06-08 12:27:00,70.2,46.6,29.94,East,98,3.0,6.7,43,0.00,,,-99.99,FreeWX 2.04,2013-06-08 17:27:00,
2013-06-08 12:32:00,70.5,47.5,29.94,East,90,4.0,6.3,44,0.00,,,-99.99,FreeWX 2.04,2013-06-08 17:32:00,
2013-06-08 12:37:00,70.9,46.6,29.94,ENE,73,3.0,7.4,42,0.00,,,-99.99,FreeWX 2.04,2013-06-08 17:37:00,
2013-06-08 12:42:00,71.2,46.9,29.94,ENE,60,3.0,6.3,42,0.00,,,-99.99,FreeWX 2.04,2013-06-08 17:42:00,
2013-06-08 12:47:00,71.1,46.8,29.94,East,86,3.0,6.7,42,0.00,,,-99.99,FreeWX 2.04,2013-06-08 17:47:00,
2013-06-08 12:52:00,71.6,47.3,29.97,ESE,116,4.0,7.4,42,0.00,,,-99.99,FreeWX 2.04,2013-06-08 17:52:00,
2013-06-08 12:57:00,71.8,46.8,29.97,ESE,107,4.0,7.8,41,0.00,,,-99.99,FreeWX 2.04,2013-06-08 17:57:00,
2013-06-08 13:02:00,71.4,46.4,29.97,East,90,4.0,6.9,41,0.00,,,-99.99,FreeWX 2.04,2013-06-08 18:02:00,
2013-06-08 13:07:00,71.8,46.8,29.94,ESE,106,4.0,6.7,41,0.00,,,-99.99,FreeWX 2.04,2013-06-08 18:07:00,
2013-06-08 13:12:00,72.0,47.7,29.94,SE,124,4.0,5.8,42,0.00,,,-99.99,FreeWX 2.04,2013-06-08 18:12:00,
2013-06-08 13:17:00,72.3,47.3,29.94,ESE,110,4.0,11.2,41,0.00,,,-99.99,FreeWX 2.04,2013-06-08 18:17:00,
2013-06-08 13:22:00,73.0,47.8,29.94,East,83,4.0,6.7,41,0.00,,,-99.99,FreeWX 2.04,2013-06-08 18:22:00,
2013-06-08 13:27:00,73.6,47.8,29.94,East,95,4.0,6.7,40,0.00,,,-99.99,FreeWX 2.04,2013-06-08 18:27:00,
2013-06-08 13:32:00,73.6,47.1,29.94,ESE,110,3.0,5.8,39,0.00,,,-99.99,FreeWX 2.04,2013-06-08 18:32:00,
2013-06-08 13:37:00,73.0,45.1,29.94,ESE,102,4.0,7.4,37,0.00,,,-99.99,FreeWX 2.04,2013-06-08 18:37:00,
2013-06-08 13:42:00,73.0,45.1,29.94,NW,321,4.0,6.7,37,0.00,,,-99.99,FreeWX 2.04,2013-06-08 18:42:00,
2013-06-08 13:47:00,73.4,45.5,29.94,NNE,18,4.0,8.3,37,0.00,,,-99.99,FreeWX 2.04,2013-06-08 18:47:00,
2013-06-08 13:52:00,73.4,45.5,29.94,ESE,110,4.0,5.8,37,0.00,,,-99.99,FreeWX 2.04,2013-06-08 18:52:00,
2013-06-08 13:57:00,73.4,45.5,29.94,ESE,123,4.0,7.4,37,0.00,,,-99.99,FreeWX 2.04,2013-06-08 18:57:00,
2013-06-08 14:02:00,73.6,45.7,29.94,ESE,122,4.0,6.7,37,0.00,,,-99.99,FreeWX 2.04,2013-06-08 19:02:00,
2013-06-08 14:07:00,73.9,46.8,29.94,SE,124,4.0,6.3,38,0.00,,,-99.99,FreeWX 2.04,2013-06-08 19:07:00,
2013-06-08 14:12:00,74.1,46.2,29.94,ESE,112,4.0,5.8,37,0.00,,,-99.99,FreeWX 2.04,2013-06-08 19:12:00,
2013-06-08 14:17:00,74.3,45.7,29.94,East,99,4.0,6.7,36,0.00,,,-99.99,FreeWX 2.04,2013-06-08 19:17:00,
2013-06-08 14:22:00,74.7,45.1,29.94,East,94,4.0,8.3,35,0.00,,,-99.99,FreeWX 2.04,2013-06-08 19:22:00,
2013-06-08 14:27:00,74.8,46.0,29.94,East,88,4.0,6.7,36,0.00,,,-99.99,FreeWX 2.04,2013-06-08 19:27:00,
2013-06-08 14:32:00,74.8,46.0,29.94,East,97,4.0,6.7,36,0.00,,,-99.99,FreeWX 2.04,2013-06-08 19:32:00,
2013-06-08 14:37:00,74.8,46.0,29.94,East,91,3.0,6.9,36,0.00,,,-99.99,FreeWX 2.04,2013-06-08 19:37:00,
2013-06-08 14:42:00,74.8,46.0,29.94,East,91,3.0,9.6,36,0.00,,,-99.99,FreeWX 2.04,2013-06-08 19:42:00,
2013-06-08 14:47:00,75.0,45.5,29.94,East,87,3.0,6.9,35,0.00,,,-99.99,FreeWX 2.04,2013-06-08 19:47:00,
2013-06-08 14:52:00,74.8,44.6,29.94,East,91,2.0,6.7,34,0.00,,,-99.99,FreeWX 2.04,2013-06-08 19:52:00,
2013-06-08 14:57:00,74.5,45.0,29.94,ESE,109,1.0,4.5,35,0.00,,,-99.99,FreeWX 2.04,2013-06-08 19:57:00,
2013-06-08 15:02:00,74.8,44.6,29.94,ESE,105,1.0,6.3,34,0.00,,,-99.99,FreeWX 2.04,2013-06-08 20:02:00,
2013-06-08 15:07:00,74.7,44.4,29.94,North,-999,0.0,5.8,34,0.00,,,-99.99,FreeWX 2.04,2013-06-08 20:07:00,
2013-06-08 15:12:00,74.3,44.8,29.94,North,-999,0.0,4.5,35,0.00,,,-99.99,FreeWX 2.04,2013-06-08 20:12:00,
2013-06-08 15:17:00,74.1,44.8,29.94,North,-999,0.0,0.0,35,0.00,,,-99.99,FreeWX 2.04,2013-06-08 20:17:00,
2013-06-08 15:22:00,74.1,44.8,29.94,North,-999,0.0,0.0,35,0.00,,,-99.99,FreeWX 2.04,2013-06-08 20:22:00,
2013-06-08 15:27:00,74.1,44.8,29.94,North,-999,0.0,4.5,35,0.00,,,-99.99,FreeWX 2.04,2013-06-08 20:27:00,
2013-06-08 15:32:00,73.9,45.3,29.94,North,-999,0.0,0.0,36,0.00,,,-99.99,FreeWX 2.04,2013-06-08 20:32:00,
2013-06-08 15:37:00,73.6,45.0,29.94,North,-999,0.0,3.1,36,0.00,,,-99.99,FreeWX 2.04,2013-06-08 20:37:00,
2013-06-08 15:42:00,73.4,44.8,29.94,North,-999,0.0,0.0,36,0.00,,,-99.99,FreeWX 2.04,2013-06-08 20:42:00,
2013-06-08 15:47:00,73.6,45.0,29.94,North,-999,0.0,0.0,36,0.00,,,-99.99,FreeWX 2.04,2013-06-08 20:47:00,
2013-06-08 15:52:00,73.9,45.3,29.94,North,-999,0.0,4.0,36,0.00,,,-99.99,FreeWX 2.04,2013-06-08 20:52:00,
2013-06-08 15:57:00,74.1,45.5,29.94,North,-999,0.0,4.9,36,0.00,,,-99.99,FreeWX 2.04,2013-06-08 20:57:00,
2013-06-08 16:02:00,74.3,44.8,29.94,North,-999,0.0,4.9,35,0.00,,,-99.99,FreeWX 2.04,2013-06-08 21:02:00,
2013-06-08 16:07:00,74.5,45.0,29.94,North,-999,0.0,4.9,35,0.00,,,-99.99,FreeWX 2.04,2013-06-08 21:07:00,
2013-06-08 16:12:00,74.7,45.1,29.94,North,-999,0.0,0.0,35,0.00,,,-99.99,FreeWX 2.04,2013-06-08 21:12:00,
2013-06-08 16:17:00,74.8,45.3,29.94,North,-999,0.0,0.0,35,0.00,,,-99.99,FreeWX 2.04,2013-06-08 21:17:00,
2013-06-08 16:22:00,74.8,45.3,29.94,North,-999,0.0,3.6,35,0.00,,,-99.99,FreeWX 2.04,2013-06-08 21:22:00,
2013-06-08 16:27:00,75.2,45.0,29.94,North,-999,0.0,3.1,34,0.00,,,-99.99,FreeWX 2.04,2013-06-08 21:27:00,
2013-06-08 16:32:00,75.4,45.0,29.94,North,-999,0.0,5.4,34,0.00,,,-99.99,FreeWX 2.04,2013-06-08 21:32:00,
2013-06-08 16:37:00,75.4,45.0,29.94,ESE,123,1.0,5.4,34,0.00,,,-99.99,FreeWX 2.04,2013-06-08 21:37:00,
2013-06-08 16:42:00,75.4,45.0,29.94,East,96,1.0,6.9,34,0.00,,,-99.99,FreeWX 2.04,2013-06-08 21:42:00,
2013-06-08 16:47:00,75.4,45.0,29.94,North,-999,0.0,6.3,34,0.00,,,-99.99,FreeWX 2.04,2013-06-08 21:47:00,
2013-06-08 16:52:00,74.8,43.7,29.94,North,-999,0.0,5.4,33,0.00,,,-99.99,FreeWX 2.04,2013-06-08 21:52:00,
2013-06-08 16:58:00,74.5,43.5,29.94,NNE,13,1.0,6.7,33,0.00,,,-99.99,FreeWX 2.04,2013-06-08 21:58:00,
2013-06-08 17:03:00,74.7,43.7,29.94,NNE,23,1.0,4.9,33,0.00,,,-99.99,FreeWX 2.04,2013-06-08 22:03:00,
2013-06-08 17:08:00,74.7,43.7,29.94,North,-999,0.0,6.7,33,0.00,,,-99.99,FreeWX 2.04,2013-06-08 22:08:00,
2013-06-08 17:13:00,74.8,43.7,29.94,North,-999,0.0,4.5,33,0.00,,,-99.99,FreeWX 2.04,2013-06-08 22:13:00,
2013-06-08 17:18:00,74.8,44.6,29.94,North,-999,0.0,0.0,34,0.00,,,-99.99,FreeWX 2.04,2013-06-08 22:18:00,
2013-06-08 17:23:00,74.8,44.6,29.94,North,-999,0.0,0.0,34,0.00,,,-99.99,FreeWX 2.04,2013-06-08 22:23:00,
2013-06-08 17:28:00,74.8,44.6,29.94,North,-999,0.0,6.3,34,0.00,,,-99.99,FreeWX 2.04,2013-06-08 22:28:00,
2013-06-08 17:33:00,74.8,43.7,29.94,North,-999,0.0,7.4,33,0.00,,,-99.99,FreeWX 2.04,2013-06-08 22:33:00,
2013-06-08 17:38:00,74.7,43.7,29.94,NE,43,1.0,8.7,33,0.00,,,-99.99,FreeWX 2.04,2013-06-08 22:38:00,
2013-06-08 17:43:00,74.5,43.5,29.94,NE,44,2.0,6.3,33,0.00,,,-99.99,FreeWX 2.04,2013-06-08 22:43:00,
2013-06-08 17:48:00,74.3,43.3,29.94,NNE,31,1.0,6.7,33,0.00,,,-99.99,FreeWX 2.04,2013-06-08 22:48:00,
2013-06-08 17:53:00,74.1,43.2,29.94,North,-999,0.0,5.8,33,0.00,,,-99.99,FreeWX 2.04,2013-06-08 22:53:00,
2013-06-08 17:58:00,74.1,43.9,29.94,North,-999,0.0,5.8,34,0.00,,,-99.99,FreeWX 2.04,2013-06-08 22:58:00,
2013-06-08 18:03:00,74.1,43.9,29.94,ENE,60,1.0,6.3,34,0.00,,,-99.99,FreeWX 2.04,2013-06-08 23:03:00,
2013-06-08 18:08:00,73.9,43.7,29.94,North,-999,0.0,3.6,34,0.00,,,-99.99,FreeWX 2.04,2013-06-08 23:08:00,
2013-06-08 18:13:00,73.9,43.7,29.94,North,-999,0.0,6.7,34,0.00,,,-99.99,FreeWX 2.04,2013-06-08 23:13:00,
2013-06-08 18:18:00,73.9,43.7,29.94,North,-999,0.0,6.7,34,0.00,,,-99.99,FreeWX 2.04,2013-06-08 23:18:00,
2013-06-08 18:23:00,73.8,43.7,29.94,ENE,59,2.0,6.3,34,0.00,,,-99.99,FreeWX 2.04,2013-06-08 23:23:00,
2013-06-08 18:28:00,73.6,43.5,29.94,East,84,1.0,4.0,34,0.00,,,-99.99,FreeWX 2.04,2013-06-08 23:28:00,
2013-06-08 18:33:00,73.6,43.5,29.94,North,-999,0.0,3.6,34,0.00,,,-99.99,FreeWX 2.04,2013-06-08 23:33:00,
2013-06-08 18:38:00,73.4,43.3,29.94,North,-999,0.0,4.5,34,0.00,,,-99.99,FreeWX 2.04,2013-06-08 23:38:00,
2013-06-08 18:43:00,73.0,43.0,29.94,North,-999,0.0,6.3,34,0.00,,,-99.99,FreeWX 2.04,2013-06-08 23:43:00,
2013-06-08 18:48:00,72.9,42.8,29.94,NE,42,1.0,6.7,34,0.00,,,-99.99,FreeWX 2.04,2013-06-08 23:48:00,
2013-06-08 18:53:00,72.5,42.4,29.94,NE,41,1.0,8.3,34,0.00,,,-99.99,FreeWX 2.04,2013-06-08 23:53:00,
2013-06-08 18:58:00,72.1,42.3,29.94,ENE,64,1.0,6.7,34,0.00,,,-99.99,FreeWX 2.04,2013-06-08 23:58:00,
2013-06-08 19:03:00,72.0,42.8,29.94,ENE,57,1.0,4.9,35,0.00,,,-99.99,FreeWX 2.04,2013-06-09 00:03:00,
2013-06-08 19:08:00,71.6,42.4,29.94,North,-999,0.0,5.4,35,0.00,,,-99.99,FreeWX 2.04,2013-06-09 00:08:00,
2013-06-08 19:13:00,71.4,42.3,29.94,North,-999,0.0,6.9,35,0.00,,,-99.99,FreeWX 2.04,2013-06-09 00:13:00,
2013-06-08 19:18:00,71.1,42.8,29.94,North,-999,0.0,3.1,36,0.00,,,-99.99,FreeWX 2.04,2013-06-09 00:18:00,
2013-06-08 19:23:00,70.9,42.6,29.94,North,-999,0.0,3.6,36,0.00,,,-99.99,FreeWX 2.04,2013-06-09 00:23:00,
2013-06-08 19:28:00,70.7,43.2,29.94,North,-999,0.0,7.8,37,0.00,,,-99.99,FreeWX 2.04,2013-06-09 00:28:00,
2013-06-08 19:33:00,70.5,43.7,29.94,North,-999,0.0,5.8,38,0.00,,,-99.99,FreeWX 2.04,2013-06-09 00:33:00,
2013-06-08 19:38:00,70.3,43.5,29.94,North,-999,0.0,6.3,38,0.00,,,-99.99,FreeWX 2.04,2013-06-09 00:38:00,
2013-06-08 19:43:00,70.2,44.1,29.94,North,-999,0.0,4.0,39,0.00,,,-99.99,FreeWX 2.04,2013-06-09 00:43:00,
2013-06-08 19:48:00,70.2,44.1,29.94,North,-999,0.0,5.8,39,0.00,,,-99.99,FreeWX 2.04,2013-06-09 00:48:00,
2013-06-08 19:53:00,70.0,43.9,29.94,North,-999,0.0,5.4,39,0.00,,,-99.99,FreeWX 2.04,2013-06-09 00:53:00,
2013-06-08 19:58:00,69.8,43.7,29.94,North,-999,0.0,4.9,39,0.00,,,-99.99,FreeWX 2.04,2013-06-09 00:58:00,
2013-06-08 20:03:00,69.4,44.1,29.94,North,-999,0.0,3.6,40,0.00,,,-99.99,FreeWX 2.04,2013-06-09 01:03:00,
2013-06-08 20:08:00,69.3,44.6,29.94,North,-999,0.0,5.8,41,0.00,,,-99.99,FreeWX 2.04,2013-06-09 01:08:00,
2013-06-08 20:13:00,68.9,44.2,29.94,North,-999,0.0,4.9,41,0.00,,,-99.99,FreeWX 2.04,2013-06-09 01:13:00,
2013-06-08 20:18:00,68.7,44.6,29.94,North,-999,0.0,0.0,42,0.00,,,-99.99,FreeWX 2.04,2013-06-09 01:18:00,
2013-06-08 20:23:00,68.5,44.6,29.94,North,-999,0.0,0.0,42,0.00,,,-99.99,FreeWX 2.04,2013-06-09 01:23:00,
2013-06-08 20:28:00,68.4,45.0,29.94,North,-999,0.0,0.0,43,0.00,,,-99.99,FreeWX 2.04,2013-06-09 01:28:00,
2013-06-08 20:33:00,68.0,45.3,29.94,North,-999,0.0,0.0,44,0.00,,,-99.99,FreeWX 2.04,2013-06-09 01:33:00,
2013-06-08 20:38:00,67.8,45.7,29.94,North,-999,0.0,0.0,45,0.00,,,-99.99,FreeWX 2.04,2013-06-09 01:38:00,
2013-06-08 20:43:00,67.5,45.9,29.94,North,-999,0.0,0.0,46,0.00,,,-99.99,FreeWX 2.04,2013-06-09 01:43:00,
2013-06-08 20:48:00,67.3,45.9,29.94,North,-999,0.0,0.0,46,0.00,,,-99.99,FreeWX 2.04,2013-06-09 01:48:00,
2013-06-08 20:53:00,66.9,46.0,29.94,North,-999,0.0,0.0,47,0.00,,,-99.99,FreeWX 2.04,2013-06-09 01:53:00,
2013-06-08 20:58:00,66.7,46.4,29.94,North,-999,0.0,0.0,48,0.00,,,-99.99,FreeWX 2.04,2013-06-09 01:58:00,
2013-06-08 21:03:00,66.6,46.2,29.94,North,-999,0.0,0.0,48,0.00,,,-99.99,FreeWX 2.04,2013-06-09 02:03:00,
2013-06-08 21:08:00,66.4,46.6,29.94,North,-999,0.0,0.0,49,0.00,,,-99.99,FreeWX 2.04,2013-06-09 02:08:00,
2013-06-08 21:13:00,66.2,46.4,29.94,North,-999,0.0,0.0,49,0.00,,,-99.99,FreeWX 2.04,2013-06-09 02:13:00,
2013-06-08 21:18:00,66.0,45.7,29.94,North,-999,0.0,0.0,48,0.00,,,-99.99,FreeWX 2.04,2013-06-09 02:18:00,
2013-06-08 21:23:00,65.8,45.7,29.94,North,-999,0.0,0.0,48,0.00,,,-99.99,FreeWX 2.04,2013-06-09 02:23:00,
2013-06-08 21:28:00,65.5,45.3,29.94,North,-999,0.0,0.0,48,0.00,,,-99.99,FreeWX 2.04,2013-06-09 02:28:00,
2013-06-08 21:33:00,65.5,45.3,29.94,North,-999,0.0,0.0,48,0.00,,,-99.99,FreeWX 2.04,2013-06-09 02:33:00,
2013-06-08 21:38:00,65.3,45.7,29.94,North,-999,0.0,0.0,49,0.00,,,-99.99,FreeWX 2.04,2013-06-09 02:38:00,
2013-06-08 21:43:00,65.1,45.5,29.94,North,-999,0.0,0.0,49,0.00,,,-99.99,FreeWX 2.04,2013-06-09 02:43:00,
2013-06-08 21:48:00,64.8,45.7,29.94,North,-999,0.0,0.0,50,0.00,,,-99.99,FreeWX 2.04,2013-06-09 02:48:00,
2013-06-08 21:53:00,64.6,46.0,29.97,North,-999,0.0,0.0,51,0.00,,,-99.99,FreeWX 2.04,2013-06-09 02:53:00,
2013-06-08 21:58:00,64.4,45.9,29.97,North,-999,0.0,0.0,51,0.00,,,-99.99,FreeWX 2.04,2013-06-09 02:58:00,
2013-06-08 22:03:00,64.2,46.2,29.97,North,-999,0.0,0.0,52,0.00,,,-99.99,FreeWX 2.04,2013-06-09 03:03:00,
2013-06-08 22:08:00,64.0,46.0,29.97,North,-999,0.0,0.0,52,0.00,,,-99.99,FreeWX 2.04,2013-06-09 03:08:00,
2013-06-08 22:13:00,63.5,45.5,29.97,North,-999,0.0,0.0,52,0.00,,,-99.99,FreeWX 2.04,2013-06-09 03:13:00,
2013-06-08 22:18:00,63.0,45.1,29.97,North,-999,0.0,0.0,52,0.00,,,-99.99,FreeWX 2.04,2013-06-09 03:18:00,
2013-06-08 22:23:00,62.2,45.0,29.97,North,-999,0.0,0.0,53,0.00,,,-99.99,FreeWX 2.04,2013-06-09 03:23:00,
2013-06-08 22:28:00,61.7,45.0,29.97,North,-999,0.0,0.0,54,0.00,,,-99.99,FreeWX 2.04,2013-06-09 03:28:00,
2013-06-08 22:33:00,61.3,45.0,29.97,North,-999,0.0,0.0,55,0.00,,,-99.99,FreeWX 2.04,2013-06-09 03:33:00,
2013-06-08 22:38:00,60.8,45.0,29.97,North,-999,0.0,0.0,56,0.00,,,-99.99,FreeWX 2.04,2013-06-09 03:38:00,
2013-06-08 22:43:00,60.4,45.1,29.97,North,-999,0.0,0.0,57,0.00,,,-99.99,FreeWX 2.04,2013-06-09 03:43:00,
2013-06-08 22:48:00,60.1,45.3,29.97,North,-999,0.0,0.0,58,0.00,,,-99.99,FreeWX 2.04,2013-06-09 03:48:00,
2013-06-08 22:53:00,59.9,45.5,29.97,North,-999,0.0,0.0,59,0.00,,,-99.99,FreeWX 2.04,2013-06-09 03:53:00,
2013-06-08 22:58:00,59.5,45.7,29.97,North,-999,0.0,0.0,60,0.00,,,-99.99,FreeWX 2.04,2013-06-09 03:58:00,
2013-06-08 23:03:00,59.4,45.9,29.97,North,-999,0.0,0.0,61,0.00,,,-99.99,FreeWX 2.04,2013-06-09 04:03:00,
2013-06-08 23:08:00,59.2,46.2,29.97,North,-999,0.0,0.0,62,0.00,,,-99.99,FreeWX 2.04,2013-06-09 04:08:00,
2013-06-08 23:13:00,59.0,46.4,29.97,North,-999,0.0,0.0,63,0.00,,,-99.99,FreeWX 2.04,2013-06-09 04:13:00,
2013-06-08 23:18:00,58.8,46.6,29.97,North,-999,0.0,0.0,64,0.00,,,-99.99,FreeWX 2.04,2013-06-09 04:18:00,
2013-06-08 23:23:00,58.5,46.4,29.97,North,-999,0.0,0.0,64,0.00,,,-99.99,FreeWX 2.04,2013-06-09 04:23:00,
2013-06-08 23:28:00,58.5,46.8,29.97,North,-999,0.0,0.0,65,0.00,,,-99.99,FreeWX 2.04,2013-06-09 04:28:00,
2013-06-08 23:33:00,58.3,46.6,29.97,North,-999,0.0,0.0,65,0.00,,,-99.99,FreeWX 2.04,2013-06-09 04:33:00,
2013-06-08 23:38:00,58.1,46.8,29.97,North,-999,0.0,0.0,66,0.00,,,-99.99,FreeWX 2.04,2013-06-09 04:38:00,
2013-06-08 23:43:00,57.9,46.9,29.97,North,-999,0.0,0.0,67,0.00,,,-99.99,FreeWX 2.04,2013-06-09 04:43:00,
2013-06-08 23:48:00,57.9,46.9,29.97,North,-999,0.0,0.0,67,0.00,,,-99.99,FreeWX 2.04,2013-06-09 04:48:00,
2013-06-08 23:53:00,57.9,47.5,29.97,North,-999,0.0,0.0,68,0.00,,,-99.99,FreeWX 2.04,2013-06-09 04:53:00,
2013-06-08 23:58:00,58.1,47.7,29.97,North,-999,0.0,0.0,68,0.00,,,-99.99,FreeWX 2.04,2013-06-09 04:58:00,